createdAt,value
2024-04-30T00:00:48.269Z,6.91
2024-04-30T00:03:15.750Z,6.89
2024-04-30T00:05:45.498Z,6.88
2024-04-30T00:08:13.280Z,6.87
2024-04-30T00:10:40.734Z,6.86
2024-04-30T00:13:08.237Z,6.85
2024-04-30T00:15:35.743Z,6.83
2024-04-30T00:18:03.184Z,6.82
2024-04-30T00:20:30.857Z,6.81
2024-04-30T00:22:58.248Z,6.79
2024-04-30T00:25:25.727Z,6.77
2024-04-30T00:27:53.128Z,6.76
2024-04-30T00:30:20.498Z,6.74
2024-04-30T00:32:47.950Z,6.74
2024-04-30T00:35:15.436Z,6.73
2024-04-30T00:37:44.226Z,6.73
2024-04-30T00:40:12.393Z,6.74
2024-04-30T00:42:39.935Z,6.75
2024-04-30T00:45:07.823Z,6.75
2024-04-30T00:47:35.343Z,6.78
2024-04-30T00:50:03.609Z,6.79
2024-04-30T00:52:32.520Z,6.81
2024-04-30T00:54:59.987Z,6.84
2024-04-30T00:57:27.628Z,6.88
2024-04-30T00:59:55.031Z,6.90
2024-04-30T01:02:23.427Z,6.91
2024-04-30T01:04:57.581Z,6.96
2024-04-30T01:07:25.449Z,6.98
2024-04-30T01:09:53.130Z,7.01
2024-04-30T01:12:21.954Z,7.05
2024-04-30T01:14:49.491Z,7.08
2024-04-30T01:17:16.961Z,7.12
2024-04-30T01:19:44.379Z,7.15
2024-04-30T01:22:11.913Z,7.19
2024-04-30T01:24:39.382Z,7.23
2024-04-30T01:27:06.794Z,7.28
2024-04-30T01:29:34.293Z,7.33
2024-04-30T01:32:01.842Z,7.36
2024-04-30T01:34:29.560Z,7.43
2024-04-30T01:36:57.146Z,7.46
2024-04-30T01:39:24.571Z,7.50
2024-04-30T01:41:51.977Z,7.54
2024-04-30T01:44:19.529Z,7.60
2024-04-30T01:46:46.994Z,7.64
2024-04-30T01:49:14.497Z,7.69
2024-04-30T01:51:41.954Z,7.75
2024-04-30T01:54:09.607Z,7.81
2024-04-30T01:56:37.033Z,7.89
2024-04-30T01:59:04.497Z,7.95
2024-04-30T02:01:31.924Z,8.02
2024-04-30T02:03:59.409Z,8.08
2024-04-30T02:06:26.927Z,8.13
2024-04-30T02:08:54.304Z,8.20
2024-04-30T02:11:22.577Z,8.28
2024-04-30T02:13:50.040Z,8.36
2024-04-30T02:16:17.576Z,8.41
2024-04-30T02:18:45.036Z,8.51
2024-04-30T02:21:12.439Z,8.62
2024-04-30T02:23:39.919Z,8.71
2024-04-30T02:26:08.169Z,8.81
2024-04-30T02:28:35.733Z,8.89
2024-04-30T02:31:21.696Z,9.03
2024-04-30T02:34:07.563Z,9.16
2024-04-30T02:36:34.958Z,9.33
2024-04-30T02:39:02.648Z,9.58
2024-04-30T02:41:30.055Z,10.06
2024-04-30T02:43:59.028Z,10.72
2024-04-30T02:46:26.481Z,11.48
2024-04-30T02:48:54.126Z,12.37
2024-04-30T02:51:22.053Z,13.06
2024-04-30T02:53:49.599Z,13.76
2024-04-30T02:56:17.042Z,14.41
2024-04-30T02:58:44.514Z,14.98
2024-04-30T03:01:12.859Z,15.66
2024-04-30T03:03:44.175Z,16.18
2024-04-30T03:06:11.709Z,16.85
2024-04-30T03:08:39.705Z,17.53
2024-04-30T03:11:07.447Z,17.98
2024-04-30T03:13:35.100Z,18.47
2024-04-30T03:16:04.080Z,18.95
2024-04-30T03:18:31.552Z,19.58
2024-04-30T03:20:59.535Z,19.84
2024-04-30T03:23:26.938Z,20.20
2024-04-30T03:25:54.384Z,20.74
2024-04-30T03:28:21.797Z,20.96
2024-04-30T03:30:49.361Z,21.27
2024-04-30T03:33:16.972Z,21.66
2024-04-30T03:35:44.506Z,21.98
2024-04-30T03:38:12.726Z,22.27
2024-04-30T03:40:40.487Z,22.60
2024-04-30T03:43:07.995Z,23.42
2024-04-30T03:45:35.500Z,23.53
2024-04-30T03:48:03.165Z,23.75
2024-04-30T03:50:30.708Z,24.02
2024-04-30T03:52:58.200Z,24.22
2024-04-30T03:55:25.648Z,24.43
2024-04-30T03:57:53.160Z,24.68
2024-04-30T04:00:20.575Z,25.02
2024-04-30T04:02:48.216Z,25.24
2024-04-30T04:05:15.677Z,25.40
2024-04-30T04:07:43.088Z,25.61
2024-04-30T04:10:10.627Z,25.67
2024-04-30T04:12:56.576Z,25.94
2024-04-30T04:15:24.021Z,26.26
2024-04-30T04:17:51.690Z,26.54
2024-04-30T04:20:19.372Z,26.81
2024-04-30T04:22:46.850Z,27.49
2024-04-30T04:25:14.519Z,27.46
2024-04-30T04:27:42.027Z,27.48
2024-04-30T04:30:09.644Z,27.69
2024-04-30T04:32:37.344Z,28.02
2024-04-30T04:35:04.918Z,28.37
2024-04-30T04:37:32.339Z,28.48
2024-04-30T04:39:59.900Z,28.63
2024-04-30T04:42:27.588Z,28.69
2024-04-30T04:44:55.042Z,28.89
2024-04-30T04:47:22.651Z,29.02
2024-04-30T04:49:50.203Z,28.99
2024-04-30T04:52:17.751Z,29.18
2024-04-30T04:54:45.223Z,29.39
2024-04-30T04:57:12.746Z,29.67
2024-04-30T04:59:40.213Z,29.84
2024-04-30T05:02:07.888Z,30.02
2024-04-30T05:04:35.313Z,30.36
2024-04-30T05:07:03.065Z,30.57
2024-04-30T05:09:30.703Z,30.79
2024-04-30T05:11:58.291Z,30.81
2024-04-30T05:14:25.717Z,31.17
2024-04-30T05:16:53.186Z,31.11
2024-04-30T05:19:20.634Z,31.11
2024-04-30T05:21:48.066Z,31.25
2024-04-30T05:24:15.749Z,31.43
2024-04-30T05:26:43.197Z,31.56
2024-04-30T05:29:10.632Z,31.64
2024-04-30T05:31:39.559Z,31.63
2024-04-30T05:34:07.414Z,31.75
2024-04-30T05:36:34.901Z,31.94
2024-04-30T05:39:03.378Z,32.21
2024-04-30T05:41:31.310Z,32.16
2024-04-30T05:43:58.739Z,32.23
2024-04-30T05:46:26.333Z,32.24
2024-04-30T05:48:54.727Z,32.35
2024-04-30T05:51:22.130Z,32.19
2024-04-30T05:53:51.035Z,32.18
2024-04-30T05:56:19.879Z,32.17
2024-04-30T05:58:47.403Z,32.17
2024-04-30T06:01:15.073Z,32.31
2024-04-30T06:03:42.733Z,32.42
2024-04-30T06:06:10.521Z,32.43
2024-04-30T06:08:41.468Z,32.60
2024-04-30T06:11:09.806Z,32.71
2024-04-30T06:13:37.442Z,32.72
2024-04-30T06:16:05.144Z,32.78
2024-04-30T06:18:32.704Z,32.62
2024-04-30T06:21:00.338Z,32.43
2024-04-30T06:23:27.719Z,32.15
2024-04-30T06:25:55.200Z,31.95
2024-04-30T06:28:22.847Z,31.86
2024-04-30T06:30:50.255Z,31.79
2024-04-30T06:33:17.741Z,31.68
2024-04-30T06:35:45.264Z,31.62
2024-04-30T06:38:13.117Z,31.61
2024-04-30T06:40:40.628Z,31.64
2024-04-30T06:43:08.238Z,31.69
2024-04-30T06:45:35.678Z,31.74
2024-04-30T06:48:03.316Z,31.83
2024-04-30T06:50:30.740Z,31.93
2024-04-30T06:52:58.181Z,32.00
2024-04-30T06:55:25.629Z,32.03
2024-04-30T06:57:53.185Z,32.06
2024-04-30T07:00:20.598Z,32.09
2024-04-30T07:02:48.021Z,32.08
2024-04-30T07:05:15.788Z,32.10
2024-04-30T07:07:43.458Z,32.30
2024-04-30T07:10:10.999Z,32.17
2024-04-30T07:12:38.392Z,32.20
2024-04-30T07:15:05.954Z,32.20
2024-04-30T07:17:34.577Z,32.22
2024-04-30T07:20:02.214Z,32.32
2024-04-30T07:22:30.792Z,32.41
2024-04-30T07:24:58.251Z,32.41
2024-04-30T07:27:28.624Z,32.35
2024-04-30T07:29:56.454Z,32.28
2024-04-30T07:32:24.255Z,32.18
2024-04-30T07:34:54.376Z,32.04
2024-04-30T07:37:21.828Z,31.94
2024-04-30T07:39:55.411Z,31.68
2024-04-30T07:42:22.822Z,31.38
2024-04-30T07:44:50.222Z,31.00
2024-04-30T07:47:29.824Z,30.54
2024-04-30T07:50:34.055Z,30.37
2024-04-30T07:53:01.673Z,30.07
2024-04-30T07:55:29.191Z,29.46
2024-04-30T07:57:58.126Z,28.91
2024-04-30T08:00:25.818Z,28.57
2024-04-30T08:02:54.339Z,28.19
2024-04-30T08:05:23.103Z,28.08
2024-04-30T08:07:50.702Z,27.81
2024-04-30T08:10:18.417Z,27.91
2024-04-30T08:12:46.105Z,27.98
2024-04-30T08:15:13.697Z,27.90
2024-04-30T08:17:43.300Z,27.96
2024-04-30T08:20:10.788Z,27.33
2024-04-30T08:22:38.626Z,27.15
2024-04-30T08:25:06.205Z,26.90
2024-04-30T08:27:33.678Z,26.90
2024-04-30T08:30:01.192Z,26.81
2024-04-30T08:32:31.669Z,26.48
2024-04-30T08:34:59.119Z,26.27
2024-04-30T08:37:27.628Z,25.90
2024-04-30T08:39:55.670Z,26.00
2024-04-30T08:42:23.945Z,25.93
2024-04-30T08:44:52.724Z,25.70
2024-04-30T08:47:20.860Z,25.69
2024-04-30T08:49:58.287Z,25.60
2024-04-30T08:52:32.925Z,25.54
2024-04-30T08:55:01.243Z,25.06
2024-04-30T08:57:30.084Z,24.73
2024-04-30T08:59:57.529Z,24.71
2024-04-30T09:02:25.121Z,24.76
2024-04-30T09:04:52.851Z,24.62
2024-04-30T09:07:20.586Z,24.49
2024-04-30T09:09:58.342Z,24.28
2024-04-30T09:12:25.991Z,23.97
2024-04-30T09:14:53.527Z,23.56
2024-04-30T09:17:24.001Z,23.61
2024-04-30T09:19:51.512Z,23.42
2024-04-30T09:22:18.996Z,23.29
2024-04-30T09:24:47.395Z,23.23
2024-04-30T09:27:15.376Z,23.01
2024-04-30T09:29:44.736Z,22.95
2024-04-30T09:32:16.257Z,23.03
2024-04-30T09:34:44.463Z,22.96
2024-04-30T09:37:21.548Z,22.98
2024-04-30T09:39:54.436Z,22.84
2024-04-30T09:42:27.168Z,22.82
2024-04-30T09:44:57.634Z,22.78
2024-04-30T09:47:25.854Z,22.54
2024-04-30T09:49:54.556Z,22.14
2024-04-30T09:52:23.215Z,22.04
2024-04-30T09:54:51.997Z,21.73
2024-04-30T09:57:20.414Z,21.61
2024-04-30T09:59:48.196Z,21.53
2024-04-30T10:02:16.617Z,21.32
2024-04-30T10:04:45.333Z,21.23
2024-04-30T10:07:13.084Z,21.29
2024-04-30T10:09:40.679Z,21.22
2024-04-30T10:12:08.224Z,21.17
2024-04-30T10:14:37.615Z,21.12
2024-04-30T10:17:06.027Z,21.03
2024-04-30T10:19:42.776Z,20.98
2024-04-30T10:22:20.078Z,21.02
2024-04-30T10:24:47.592Z,20.97
2024-04-30T10:27:24.788Z,20.92
2024-04-30T10:29:52.362Z,21.10
2024-04-30T10:32:20.039Z,20.99
2024-04-30T10:35:07.672Z,20.91
2024-04-30T10:37:35.146Z,20.90
2024-04-30T10:40:17.772Z,20.94
2024-04-30T10:42:45.924Z,20.87
2024-04-30T10:45:23.224Z,20.76
2024-04-30T10:47:50.760Z,20.77
2024-04-30T10:50:19.913Z,20.81
2024-04-30T10:52:48.346Z,20.71
2024-04-30T10:55:19.402Z,20.66
2024-04-30T10:57:46.977Z,20.66
2024-04-30T11:00:14.492Z,20.67
2024-04-30T11:02:49.808Z,20.61
2024-04-30T11:05:19.895Z,20.49
2024-04-30T11:08:00.064Z,20.39
2024-04-30T11:10:29.153Z,20.34
2024-04-30T11:12:57.555Z,20.28
2024-04-30T11:15:25.186Z,20.19
2024-04-30T11:17:52.981Z,20.13
2024-04-30T11:20:20.528Z,20.04
2024-04-30T11:22:48.123Z,19.97
2024-04-30T11:25:15.811Z,19.90
2024-04-30T11:27:43.303Z,19.81
2024-04-30T11:30:10.976Z,19.90
2024-04-30T11:32:38.727Z,19.82
2024-04-30T11:35:06.185Z,19.63
2024-04-30T11:37:34.660Z,19.62
2024-04-30T11:40:02.189Z,19.41
2024-04-30T11:42:34.779Z,19.51
2024-04-30T11:45:09.440Z,19.45
2024-04-30T11:47:36.914Z,19.46
2024-04-30T11:50:04.559Z,19.33
2024-04-30T11:52:32.031Z,19.02
2024-04-30T11:54:59.465Z,19.11
2024-04-30T11:57:26.880Z,19.14
2024-04-30T11:59:54.897Z,19.18
2024-04-30T12:02:22.346Z,19.17
2024-04-30T12:04:50.096Z,19.25
2024-04-30T12:07:17.750Z,19.21
2024-04-30T12:09:45.178Z,19.09
2024-04-30T12:12:12.647Z,19.09
2024-04-30T12:14:41.131Z,19.12
2024-04-30T12:17:08.719Z,19.10
2024-04-30T12:19:37.589Z,19.03
2024-04-30T12:22:05.236Z,19.01
2024-04-30T12:24:32.639Z,19.04
2024-04-30T12:27:00.125Z,19.07
2024-04-30T12:29:27.540Z,18.97
2024-04-30T12:31:54.925Z,18.98
2024-04-30T12:34:22.384Z,18.96
2024-04-30T12:36:49.978Z,18.95
2024-04-30T12:39:17.616Z,19.04
2024-04-30T12:41:45.087Z,19.08
2024-04-30T12:44:12.743Z,19.10
2024-04-30T12:46:40.178Z,19.10
2024-04-30T12:49:07.637Z,19.10
2024-04-30T12:51:35.080Z,19.07
2024-04-30T12:54:02.562Z,19.08
2024-04-30T12:56:30.117Z,19.04
2024-04-30T12:58:57.555Z,19.05
2024-04-30T13:01:26.340Z,19.03
2024-04-30T13:03:54.156Z,18.99
2024-04-30T13:06:21.678Z,18.96
2024-04-30T13:08:49.254Z,18.94
2024-04-30T13:11:16.834Z,18.93
2024-04-30T13:13:44.554Z,18.92
2024-04-30T13:16:12.152Z,18.88
2024-04-30T13:18:39.626Z,18.84
2024-04-30T13:21:07.903Z,18.70
2024-04-30T13:23:38.509Z,18.66
2024-04-30T13:26:06.007Z,18.63
2024-04-30T13:28:36.999Z,18.51
2024-04-30T13:31:04.545Z,18.41
2024-04-30T13:33:32.055Z,18.36
2024-04-30T13:35:59.602Z,18.29
2024-04-30T13:38:27.158Z,18.28
2024-04-30T13:40:54.921Z,18.30
2024-04-30T13:43:22.383Z,18.23
2024-04-30T13:45:49.835Z,18.23
2024-04-30T13:48:17.593Z,18.24
2024-04-30T13:50:45.175Z,18.19
2024-04-30T13:53:12.659Z,18.14
2024-04-30T13:55:40.182Z,18.12
2024-04-30T13:58:07.791Z,18.04
2024-04-30T14:00:35.462Z,18.05
2024-04-30T14:03:03.152Z,18.02
2024-04-30T14:05:30.648Z,18.00
2024-04-30T14:07:58.140Z,17.94
2024-04-30T14:10:25.594Z,17.93
2024-04-30T14:12:53.211Z,17.85
2024-04-30T14:15:20.680Z,17.69
2024-04-30T14:17:48.343Z,17.68
2024-04-30T14:20:16.008Z,17.66
2024-04-30T14:22:43.783Z,17.60
2024-04-30T14:25:11.383Z,17.50
2024-04-30T14:27:38.965Z,17.47
2024-04-30T14:30:06.862Z,17.42
2024-04-30T14:32:34.446Z,17.31
2024-04-30T14:35:02.357Z,17.22
2024-04-30T14:37:31.426Z,17.10
2024-04-30T14:39:58.856Z,17.18
2024-04-30T14:42:27.719Z,17.21
2024-04-30T14:44:55.716Z,17.16
2024-04-30T14:47:23.831Z,17.09
2024-04-30T14:49:51.425Z,17.12
2024-04-30T14:52:19.083Z,17.07
2024-04-30T14:54:47.217Z,17.01
2024-04-30T14:57:14.643Z,17.03
2024-04-30T14:59:42.095Z,16.92
2024-04-30T15:02:09.744Z,16.98
2024-04-30T15:04:37.261Z,17.01
2024-04-30T15:07:04.836Z,17.02
2024-04-30T15:09:35.303Z,17.00
2024-04-30T15:12:03.256Z,16.90
2024-04-30T15:14:30.781Z,16.84
2024-04-30T15:16:58.860Z,16.87
2024-04-30T15:19:26.714Z,16.87
2024-04-30T15:21:54.613Z,16.80
2024-04-30T15:24:22.085Z,16.83
2024-04-30T15:26:49.525Z,16.81
2024-04-30T15:29:17.287Z,16.74
2024-04-30T15:31:45.295Z,16.68
2024-04-30T15:34:12.799Z,16.39
2024-04-30T15:36:46.655Z,16.29
2024-04-30T15:39:18.289Z,16.25
2024-04-30T15:41:45.736Z,16.31
2024-04-30T15:44:13.624Z,16.22
2024-04-30T15:46:41.569Z,16.14
2024-04-30T15:49:11.505Z,16.02
2024-04-30T15:51:39.666Z,16.01
2024-04-30T15:54:09.907Z,16.01
2024-04-30T15:56:43.627Z,15.94
2024-04-30T15:59:16.369Z,15.89
2024-04-30T16:01:43.898Z,15.73
2024-04-30T16:04:12.210Z,15.73
2024-04-30T16:06:43.450Z,15.65
2024-04-30T16:09:10.902Z,15.38
2024-04-30T16:11:38.391Z,15.55
2024-04-30T16:14:05.841Z,15.58
2024-04-30T16:16:38.201Z,15.57
2024-04-30T16:19:05.878Z,15.50
2024-04-30T16:21:33.297Z,15.48
2024-04-30T16:24:00.880Z,15.44
2024-04-30T16:26:28.322Z,15.37
2024-04-30T16:28:55.805Z,15.26
2024-04-30T16:31:23.503Z,15.25
2024-04-30T16:33:51.596Z,15.23
2024-04-30T16:36:21.275Z,15.18
2024-04-30T16:38:50.353Z,15.11
2024-04-30T16:41:18.223Z,15.07
2024-04-30T16:43:45.633Z,15.02
2024-04-30T16:46:13.189Z,14.93
2024-04-30T16:48:41.299Z,14.75
2024-04-30T16:51:17.942Z,14.68
2024-04-30T16:53:45.592Z,14.64
2024-04-30T16:56:13.376Z,14.62
2024-04-30T16:58:40.822Z,14.57
2024-04-30T17:01:08.493Z,14.54
2024-04-30T17:03:40.179Z,14.50
2024-04-30T17:06:12.296Z,14.48
2024-04-30T17:08:40.638Z,14.45
2024-04-30T17:11:11.051Z,14.47
2024-04-30T17:13:44.587Z,14.42
2024-04-30T17:16:20.010Z,14.46
2024-04-30T17:18:47.843Z,14.44
2024-04-30T17:21:20.859Z,14.44
2024-04-30T17:23:49.458Z,14.41
2024-04-30T17:26:24.490Z,14.40
2024-04-30T17:28:54.191Z,14.37
2024-04-30T17:31:22.144Z,14.32
2024-04-30T17:37:45.159Z,14.32
2024-04-30T17:40:12.745Z,14.30
2024-04-30T17:42:40.358Z,14.36
2024-04-30T17:45:08.274Z,14.34
2024-04-30T17:47:35.801Z,14.32
2024-04-30T17:50:03.896Z,14.29
2024-04-30T17:52:33.601Z,14.31
2024-04-30T17:55:01.560Z,14.31
2024-04-30T17:57:32.240Z,14.31
2024-04-30T18:00:00.413Z,14.36
2024-04-30T18:02:27.988Z,14.33
2024-04-30T18:04:57.643Z,14.37
2024-04-30T18:07:27.250Z,14.39
2024-04-30T18:09:54.947Z,14.36
2024-04-30T18:12:22.682Z,14.38
2024-04-30T18:14:52.443Z,14.39
2024-04-30T18:17:20.063Z,14.35
2024-04-30T18:19:47.796Z,14.33
2024-04-30T18:22:18.542Z,14.30
2024-04-30T18:24:48.518Z,14.29
2024-04-30T18:27:18.364Z,14.18
2024-04-30T18:29:45.938Z,14.14
2024-04-30T18:32:13.851Z,14.10
2024-04-30T18:34:42.586Z,14.12
2024-04-30T18:37:11.895Z,14.09
2024-04-30T18:39:45.259Z,14.16
2024-04-30T18:42:17.011Z,14.15
2024-04-30T18:44:45.788Z,14.13
2024-04-30T18:47:14.333Z,14.12
2024-04-30T18:49:42.371Z,14.09
2024-04-30T18:52:12.625Z,14.00
2024-04-30T18:54:42.877Z,14.09
2024-04-30T18:57:11.210Z,13.89
2024-04-30T18:59:38.958Z,13.95
2024-04-30T19:02:09.381Z,13.92
2024-04-30T19:04:41.330Z,13.97
2024-04-30T19:07:09.007Z,14.03
2024-04-30T19:09:36.974Z,14.04
2024-04-30T19:12:04.823Z,14.08
2024-04-30T19:14:33.750Z,14.04
2024-04-30T19:17:03.573Z,13.95
2024-04-30T19:19:31.136Z,14.00
2024-04-30T19:21:58.897Z,13.99
2024-04-30T19:24:26.474Z,13.94
2024-04-30T19:26:53.920Z,13.95
2024-04-30T19:29:24.046Z,13.76
2024-04-30T19:31:51.518Z,13.78
2024-04-30T19:34:19.242Z,13.78
2024-04-30T19:36:46.867Z,13.71
2024-04-30T19:39:14.601Z,13.70
2024-04-30T19:41:42.068Z,13.64
2024-04-30T19:44:12.254Z,13.60
2024-04-30T19:46:39.689Z,13.49
2024-04-30T19:49:07.526Z,13.43
2024-04-30T19:51:35.101Z,13.33
2024-04-30T19:54:04.685Z,13.24
2024-04-30T19:56:32.148Z,13.35
2024-04-30T19:58:59.848Z,13.38
2024-04-30T20:01:29.572Z,13.39
2024-04-30T20:03:58.880Z,13.35
2024-04-30T20:06:26.912Z,13.38
2024-04-30T20:08:54.556Z,13.28
2024-04-30T20:11:25.310Z,13.33
2024-04-30T20:13:56.766Z,13.36
2024-04-30T20:16:27.938Z,13.32
2024-04-30T20:18:55.569Z,13.29
2024-04-30T20:21:23.252Z,13.31
2024-04-30T20:23:50.682Z,13.34
2024-04-30T20:26:18.155Z,13.38
2024-04-30T20:28:45.692Z,13.29
2024-04-30T20:31:13.134Z,13.31
2024-04-30T20:33:41.306Z,13.35
2024-04-30T20:36:20.960Z,13.31
2024-04-30T20:38:48.579Z,13.23
2024-04-30T20:41:16.354Z,13.22
2024-04-30T20:43:43.866Z,13.24
2024-04-30T20:46:11.473Z,13.14
2024-04-30T20:48:39.101Z,13.14
2024-04-30T20:51:06.790Z,13.14
2024-04-30T20:53:34.497Z,13.12
2024-04-30T20:56:01.875Z,13.19
2024-04-30T20:58:29.283Z,13.19
2024-04-30T21:00:59.563Z,13.16
2024-04-30T21:03:27.348Z,13.01
2024-04-30T21:05:54.905Z,13.09
2024-04-30T21:08:25.740Z,13.14
2024-04-30T21:10:53.671Z,13.15
2024-04-30T21:13:21.504Z,12.96
2024-04-30T21:15:49.090Z,13.06
2024-04-30T21:18:16.738Z,12.91
2024-04-30T21:20:44.314Z,12.86
2024-04-30T21:23:12.395Z,12.87
2024-04-30T21:25:41.164Z,12.92
2024-04-30T21:28:11.676Z,12.87
2024-04-30T21:30:39.126Z,12.84
2024-04-30T21:33:06.904Z,12.83
2024-04-30T21:35:35.023Z,12.91
2024-04-30T21:38:02.475Z,12.95
2024-04-30T21:40:29.906Z,13.00
2024-04-30T21:42:57.399Z,13.02
2024-04-30T21:45:24.927Z,13.05
2024-04-30T21:47:52.413Z,13.12
2024-04-30T21:50:19.954Z,13.09
2024-04-30T21:52:47.763Z,13.09
2024-04-30T21:55:15.252Z,13.09
2024-04-30T21:57:42.779Z,13.07
2024-04-30T22:00:14.332Z,13.07
2024-04-30T22:02:41.965Z,13.04
2024-04-30T22:05:09.465Z,12.99
2024-04-30T22:07:36.938Z,12.98
2024-04-30T22:10:04.726Z,12.97
2024-04-30T22:12:32.492Z,13.05
2024-04-30T22:15:00.136Z,13.04
2024-04-30T22:17:27.600Z,13.03
2024-04-30T22:19:57.437Z,13.00
2024-04-30T22:22:24.923Z,12.99
2024-04-30T22:24:52.428Z,12.97
2024-04-30T22:27:19.915Z,12.96
2024-04-30T22:29:50.278Z,13.01
2024-04-30T22:32:20.642Z,12.97
2024-04-30T22:34:48.142Z,12.96
2024-04-30T22:37:15.939Z,12.91
2024-04-30T22:39:43.460Z,12.87
2024-04-30T22:42:11.015Z,12.84
2024-04-30T22:44:38.413Z,12.83
2024-04-30T22:47:05.876Z,12.82
2024-04-30T22:49:33.562Z,12.82
2024-04-30T22:52:00.943Z,12.84
2024-04-30T22:54:28.374Z,12.83
2024-04-30T22:56:55.870Z,12.82
2024-04-30T22:59:23.334Z,12.83
2024-04-30T23:01:50.876Z,12.78
2024-04-30T23:04:18.716Z,12.74
2024-04-30T23:06:46.233Z,12.70
2024-04-30T23:09:13.693Z,12.65
2024-04-30T23:11:41.196Z,12.63
2024-04-30T23:14:08.581Z,12.62
2024-04-30T23:16:36.032Z,12.62
2024-04-30T23:19:03.601Z,12.66
2024-04-30T23:21:31.153Z,12.82
2024-04-30T23:23:58.604Z,12.70
2024-04-30T23:26:26.102Z,12.71
2024-04-30T23:28:53.528Z,12.64
2024-04-30T23:31:21.036Z,12.60
2024-04-30T23:33:48.615Z,12.65
2024-04-30T23:36:16.178Z,12.64
2024-04-30T23:38:43.629Z,12.54
2024-04-30T23:41:11.083Z,12.45
2024-04-30T23:43:39.163Z,12.39
2024-04-30T23:46:10.391Z,12.26
2024-04-30T23:48:37.927Z,12.15
2024-04-30T23:51:10.628Z,12.07
2024-04-30T23:53:40.411Z,12.13
2024-04-30T23:56:08.055Z,12.00
2024-04-30T23:58:35.554Z,11.99
